sensor_id;sensor_type;location;lat;lon;timestamp;P1;durP1;ratioP1;P2;durP2;ratioP2
16516;SDS011;8371;52.272;9.746;2022-09-13T00:00:31;2.67;;;1.40;;
16516;SDS011;8371;52.272;9.746;2022-09-13T00:02:58;1.67;;;1.60;;
16516;SDS011;8371;52.272;9.746;2022-09-13T00:05:23;1.50;;;1.50;;
16516;SDS011;8371;52.272;9.746;2022-09-13T00:07:49;1.47;;;1.47;;
16516;SDS011;8371;52.272;9.746;2022-09-13T00:10:15;1.60;;;1.60;;
16516;SDS011;8371;52.272;9.746;2022-09-13T00:12:41;1.60;;;1.60;;
16516;SDS011;8371;52.272;9.746;2022-09-13T00:15:07;1.73;;;1.73;;
16516;SDS011;8371;52.272;9.746;2022-09-13T00:17:34;1.47;;;1.37;;
16516;SDS011;8371;52.272;9.746;2022-09-13T00:19:59;1.67;;;1.67;;
16516;SDS011;8371;52.272;9.746;2022-09-13T00:22:25;1.43;;;1.43;;
16516;SDS011;8371;52.272;9.746;2022-09-13T00:24:51;1.57;;;1.57;;
16516;SDS011;8371;52.272;9.746;2022-09-13T00:27:17;1.57;;;1.57;;
16516;SDS011;8371;52.272;9.746;2022-09-13T00:29:43;1.70;;;1.70;;
16516;SDS011;8371;52.272;9.746;2022-09-13T00:32:09;1.37;;;1.37;;
16516;SDS011;8371;52.272;9.746;2022-09-13T00:34:35;1.60;;;1.60;;
16516;SDS011;8371;52.272;9.746;2022-09-13T00:37:00;1.93;;;1.83;;
16516;SDS011;8371;52.272;9.746;2022-09-13T00:39:26;1.50;;;1.50;;
16516;SDS011;8371;52.272;9.746;2022-09-13T00:41:52;1.83;;;1.73;;
16516;SDS011;8371;52.272;9.746;2022-09-13T00:47:14;1.53;;;1.53;;
16516;SDS011;8371;52.272;9.746;2022-09-13T00:49:43;1.37;;;1.37;;
16516;SDS011;8371;52.272;9.746;2022-09-13T00:52:13;1.57;;;1.57;;
16516;SDS011;8371;52.272;9.746;2022-09-13T00:54:43;1.70;;;1.70;;
16516;SDS011;8371;52.272;9.746;2022-09-13T00:57:11;1.57;;;1.57;;
16516;SDS011;8371;52.272;9.746;2022-09-13T00:59:40;1.27;;;1.27;;
16516;SDS011;8371;52.272;9.746;2022-09-13T01:02:10;2.50;;;1.87;;
16516;SDS011;8371;52.272;9.746;2022-09-13T01:04:36;1.67;;;1.67;;
16516;SDS011;8371;52.272;9.746;2022-09-13T01:07:04;2.33;;;1.70;;
16516;SDS011;8371;52.272;9.746;2022-09-13T01:09:33;1.73;;;1.70;;
16516;SDS011;8371;52.272;9.746;2022-09-13T01:12:04;1.77;;;1.77;;
16516;SDS011;8371;52.272;9.746;2022-09-13T01:14:32;1.80;;;1.80;;
16516;SDS011;8371;52.272;9.746;2022-09-13T01:16:59;2.10;;;2.00;;
16516;SDS011;8371;52.272;9.746;2022-09-13T01:19:25;1.60;;;1.60;;
16516;SDS011;8371;52.272;9.746;2022-09-13T01:25:03;1.67;;;1.67;;
16516;SDS011;8371;52.272;9.746;2022-09-13T01:38:10;1.70;;;1.70;;
16516;SDS011;8371;52.272;9.746;2022-09-13T01:40:50;1.43;;;1.43;;
16516;SDS011;8371;52.272;9.746;2022-09-13T01:46:29;1.70;;;1.70;;
16516;SDS011;8371;52.272;9.746;2022-09-13T01:48:59;1.80;;;1.70;;
16516;SDS011;8371;52.272;9.746;2022-09-13T01:51:33;1.47;;;1.47;;
16516;SDS011;8371;52.272;9.746;2022-09-13T01:54:16;1.93;;;1.93;;
16516;SDS011;8371;52.272;9.746;2022-09-13T01:57:04;1.90;;;1.90;;
16516;SDS011;8371;52.272;9.746;2022-09-13T01:59:51;1.93;;;1.83;;
16516;SDS011;8371;52.272;9.746;2022-09-13T02:02:20;1.90;;;1.80;;
16516;SDS011;8371;52.272;9.746;2022-09-13T02:04:52;1.67;;;1.67;;
16516;SDS011;8371;52.272;9.746;2022-09-13T02:07:23;1.73;;;1.70;;
16516;SDS011;8371;52.272;9.746;2022-09-13T02:10:04;1.63;;;1.63;;
16516;SDS011;8371;52.272;9.746;2022-09-13T02:12:26;1.67;;;1.67;;
16516;SDS011;8371;52.272;9.746;2022-09-13T02:14:59;1.97;;;1.87;;
16516;SDS011;8371;52.272;9.746;2022-09-13T02:17:27;2.07;;;2.07;;
16516;SDS011;8371;52.272;9.746;2022-09-13T02:19:57;2.20;;;2.10;;
16516;SDS011;8371;52.272;9.746;2022-09-13T02:22:33;1.60;;;1.60;;
16516;SDS011;8371;52.272;9.746;2022-09-13T02:25:04;2.17;;;2.00;;
16516;SDS011;8371;52.272;9.746;2022-09-13T02:27:31;1.73;;;1.73;;
16516;SDS011;8371;52.272;9.746;2022-09-13T02:30:00;1.60;;;1.60;;
16516;SDS011;8371;52.272;9.746;2022-09-13T02:32:39;1.50;;;1.50;;
16516;SDS011;8371;52.272;9.746;2022-09-13T02:35:12;1.80;;;1.80;;
16516;SDS011;8371;52.272;9.746;2022-09-13T02:37:51;1.77;;;1.67;;
16516;SDS011;8371;52.272;9.746;2022-09-13T02:40:20;1.77;;;1.77;;
16516;SDS011;8371;52.272;9.746;2022-09-13T02:42:50;2.07;;;2.07;;
16516;SDS011;8371;52.272;9.746;2022-09-13T02:45:20;1.90;;;1.90;;
16516;SDS011;8371;52.272;9.746;2022-09-13T02:47:52;1.57;;;1.57;;
16516;SDS011;8371;52.272;9.746;2022-09-13T02:53:13;2.10;;;2.00;;
16516;SDS011;8371;52.272;9.746;2022-09-13T02:58:42;1.70;;;1.60;;
16516;SDS011;8371;52.272;9.746;2022-09-13T03:01:12;1.87;;;1.77;;
16516;SDS011;8371;52.272;9.746;2022-09-13T03:03:38;1.90;;;1.90;;
16516;SDS011;8371;52.272;9.746;2022-09-13T03:06:04;2.00;;;2.00;;
16516;SDS011;8371;52.272;9.746;2022-09-13T03:08:30;1.70;;;1.70;;
16516;SDS011;8371;52.272;9.746;2022-09-13T03:11:18;3.13;;;2.00;;
16516;SDS011;8371;52.272;9.746;2022-09-13T03:16:40;1.93;;;1.90;;
16516;SDS011;8371;52.272;9.746;2022-09-13T03:28:23;2.73;;;1.83;;
16516;SDS011;8371;52.272;9.746;2022-09-13T03:31:03;1.87;;;1.87;;
16516;SDS011;8371;52.272;9.746;2022-09-13T03:33:47;2.17;;;2.13;;
16516;SDS011;8371;52.272;9.746;2022-09-13T03:36:24;1.73;;;1.73;;
16516;SDS011;8371;52.272;9.746;2022-09-13T03:39:08;1.63;;;1.63;;
16516;SDS011;8371;52.272;9.746;2022-09-13T03:41:41;1.70;;;1.70;;
16516;SDS011;8371;52.272;9.746;2022-09-13T03:44:09;1.73;;;1.73;;
16516;SDS011;8371;52.272;9.746;2022-09-13T03:46:42;1.87;;;1.87;;
16516;SDS011;8371;52.272;9.746;2022-09-13T03:49:11;1.80;;;1.80;;
16516;SDS011;8371;52.272;9.746;2022-09-13T03:51:39;1.67;;;1.67;;
16516;SDS011;8371;52.272;9.746;2022-09-13T03:54:09;1.70;;;1.70;;
16516;SDS011;8371;52.272;9.746;2022-09-13T03:56:36;1.80;;;1.80;;
16516;SDS011;8371;52.272;9.746;2022-09-13T03:59:02;2.40;;;2.30;;
16516;SDS011;8371;52.272;9.746;2022-09-13T04:01:28;2.20;;;2.20;;
16516;SDS011;8371;52.272;9.746;2022-09-13T04:03:53;1.97;;;1.80;;
16516;SDS011;8371;52.272;9.746;2022-09-13T04:06:20;2.03;;;2.00;;
16516;SDS011;8371;52.272;9.746;2022-09-13T04:08:45;1.93;;;1.93;;
16516;SDS011;8371;52.272;9.746;2022-09-13T04:11:11;2.10;;;2.10;;
16516;SDS011;8371;52.272;9.746;2022-09-13T04:13:37;1.83;;;1.83;;
16516;SDS011;8371;52.272;9.746;2022-09-13T04:16:05;1.93;;;1.93;;
16516;SDS011;8371;52.272;9.746;2022-09-13T04:18:31;2.37;;;2.30;;
16516;SDS011;8371;52.272;9.746;2022-09-13T04:20:58;1.83;;;1.83;;
16516;SDS011;8371;52.272;9.746;2022-09-13T04:23:25;2.00;;;1.97;;
16516;SDS011;8371;52.272;9.746;2022-09-13T04:25:53;2.20;;;2.20;;
16516;SDS011;8371;52.272;9.746;2022-09-13T04:28:19;1.87;;;1.87;;
16516;SDS011;8371;52.272;9.746;2022-09-13T04:30:46;2.23;;;2.17;;
16516;SDS011;8371;52.272;9.746;2022-09-13T04:33:13;1.80;;;1.80;;
16516;SDS011;8371;52.272;9.746;2022-09-13T04:35:41;2.00;;;2.00;;
16516;SDS011;8371;52.272;9.746;2022-09-13T04:38:07;2.20;;;2.10;;
16516;SDS011;8371;52.272;9.746;2022-09-13T04:40:33;1.83;;;1.83;;
16516;SDS011;8371;52.272;9.746;2022-09-13T04:42:59;2.00;;;2.00;;
16516;SDS011;8371;52.272;9.746;2022-09-13T04:45:26;1.80;;;1.80;;
16516;SDS011;8371;52.272;9.746;2022-09-13T04:47:53;2.13;;;2.03;;
16516;SDS011;8371;52.272;9.746;2022-09-13T04:50:21;2.10;;;2.00;;
16516;SDS011;8371;52.272;9.746;2022-09-13T04:52:48;2.07;;;2.07;;
16516;SDS011;8371;52.272;9.746;2022-09-13T04:55:15;2.20;;;2.20;;
16516;SDS011;8371;52.272;9.746;2022-09-13T04:57:41;2.30;;;2.20;;
16516;SDS011;8371;52.272;9.746;2022-09-13T05:00:07;1.90;;;1.90;;
16516;SDS011;8371;52.272;9.746;2022-09-13T05:02:33;1.83;;;1.83;;
16516;SDS011;8371;52.272;9.746;2022-09-13T05:04:59;2.30;;;2.23;;
16516;SDS011;8371;52.272;9.746;2022-09-13T05:07:25;1.97;;;1.97;;
16516;SDS011;8371;52.272;9.746;2022-09-13T05:09:51;2.53;;;2.37;;
16516;SDS011;8371;52.272;9.746;2022-09-13T05:12:16;2.27;;;2.20;;
16516;SDS011;8371;52.272;9.746;2022-09-13T05:14:42;2.20;;;2.10;;
16516;SDS011;8371;52.272;9.746;2022-09-13T05:17:08;2.17;;;2.07;;
16516;SDS011;8371;52.272;9.746;2022-09-13T05:19:33;2.73;;;2.63;;
16516;SDS011;8371;52.272;9.746;2022-09-13T05:22:00;2.27;;;2.17;;
16516;SDS011;8371;52.272;9.746;2022-09-13T05:24:26;2.03;;;2.00;;
16516;SDS011;8371;52.272;9.746;2022-09-13T05:26:52;1.77;;;1.77;;
16516;SDS011;8371;52.272;9.746;2022-09-13T05:29:18;2.50;;;2.40;;
16516;SDS011;8371;52.272;9.746;2022-09-13T05:31:44;2.10;;;2.00;;
16516;SDS011;8371;52.272;9.746;2022-09-13T05:34:10;2.17;;;2.07;;
16516;SDS011;8371;52.272;9.746;2022-09-13T05:36:38;2.20;;;2.10;;
16516;SDS011;8371;52.272;9.746;2022-09-13T05:39:05;2.30;;;2.20;;
16516;SDS011;8371;52.272;9.746;2022-09-13T05:41:32;1.80;;;1.80;;
16516;SDS011;8371;52.272;9.746;2022-09-13T05:43:58;1.73;;;1.73;;
16516;SDS011;8371;52.272;9.746;2022-09-13T05:46:24;8.10;;;2.30;;
16516;SDS011;8371;52.272;9.746;2022-09-13T05:48:49;1.83;;;1.83;;
16516;SDS011;8371;52.272;9.746;2022-09-13T05:51:16;1.93;;;1.93;;
16516;SDS011;8371;52.272;9.746;2022-09-13T05:53:44;2.33;;;2.00;;
16516;SDS011;8371;52.272;9.746;2022-09-13T05:56:16;1.90;;;1.90;;
16516;SDS011;8371;52.272;9.746;2022-09-13T05:58:40;2.10;;;2.00;;
16516;SDS011;8371;52.272;9.746;2022-09-13T06:01:08;2.20;;;2.10;;
16516;SDS011;8371;52.272;9.746;2022-09-13T06:03:35;1.90;;;1.90;;
16516;SDS011;8371;52.272;9.746;2022-09-13T06:06:01;2.13;;;1.97;;
16516;SDS011;8371;52.272;9.746;2022-09-13T06:08:28;2.07;;;2.00;;
16516;SDS011;8371;52.272;9.746;2022-09-13T06:10:56;2.00;;;2.00;;
16516;SDS011;8371;52.272;9.746;2022-09-13T06:13:24;1.77;;;1.77;;
16516;SDS011;8371;52.272;9.746;2022-09-13T06:15:51;2.07;;;2.07;;
16516;SDS011;8371;52.272;9.746;2022-09-13T06:18:18;1.87;;;1.87;;
16516;SDS011;8371;52.272;9.746;2022-09-13T06:20:44;2.40;;;2.30;;
16516;SDS011;8371;52.272;9.746;2022-09-13T06:23:10;1.67;;;1.67;;
16516;SDS011;8371;52.272;9.746;2022-09-13T06:25:36;2.43;;;2.33;;
16516;SDS011;8371;52.272;9.746;2022-09-13T06:28:03;2.03;;;2.00;;
16516;SDS011;8371;52.272;9.746;2022-09-13T06:30:28;2.00;;;2.00;;
16516;SDS011;8371;52.272;9.746;2022-09-13T06:32:55;2.10;;;2.00;;
16516;SDS011;8371;52.272;9.746;2022-09-13T06:35:21;2.23;;;2.23;;
16516;SDS011;8371;52.272;9.746;2022-09-13T06:37:46;2.30;;;2.20;;
16516;SDS011;8371;52.272;9.746;2022-09-13T06:40:12;2.00;;;2.00;;
16516;SDS011;8371;52.272;9.746;2022-09-13T06:42:38;1.70;;;1.70;;
16516;SDS011;8371;52.272;9.746;2022-09-13T06:45:04;2.00;;;2.00;;
16516;SDS011;8371;52.272;9.746;2022-09-13T06:47:31;2.10;;;2.00;;
16516;SDS011;8371;52.272;9.746;2022-09-13T06:49:57;2.40;;;2.30;;
16516;SDS011;8371;52.272;9.746;2022-09-13T06:52:23;1.90;;;1.90;;
16516;SDS011;8371;52.272;9.746;2022-09-13T06:54:49;2.17;;;2.07;;
16516;SDS011;8371;52.272;9.746;2022-09-13T06:57:15;2.07;;;1.97;;
16516;SDS011;8371;52.272;9.746;2022-09-13T06:59:41;1.93;;;1.93;;
16516;SDS011;8371;52.272;9.746;2022-09-13T07:02:08;1.87;;;1.87;;
16516;SDS011;8371;52.272;9.746;2022-09-13T07:04:34;1.83;;;1.83;;
16516;SDS011;8371;52.272;9.746;2022-09-13T07:07:00;2.30;;;2.20;;
16516;SDS011;8371;52.272;9.746;2022-09-13T07:09:25;2.43;;;2.33;;
16516;SDS011;8371;52.272;9.746;2022-09-13T07:11:52;2.13;;;2.07;;
16516;SDS011;8371;52.272;9.746;2022-09-13T07:14:21;3.50;;;2.00;;
16516;SDS011;8371;52.272;9.746;2022-09-13T07:16:48;2.23;;;2.13;;
16516;SDS011;8371;52.272;9.746;2022-09-13T07:19:17;2.30;;;2.20;;
16516;SDS011;8371;52.272;9.746;2022-09-13T07:21:44;3.50;;;2.03;;
16516;SDS011;8371;52.272;9.746;2022-09-13T07:24:11;2.00;;;1.90;;
16516;SDS011;8371;52.272;9.746;2022-09-13T07:26:37;3.23;;;2.03;;
16516;SDS011;8371;52.272;9.746;2022-09-13T07:29:04;2.00;;;2.00;;
16516;SDS011;8371;52.272;9.746;2022-09-13T07:31:32;1.80;;;1.80;;
16516;SDS011;8371;52.272;9.746;2022-09-13T07:34:05;1.70;;;1.70;;
16516;SDS011;8371;52.272;9.746;2022-09-13T07:36:29;2.53;;;2.07;;
16516;SDS011;8371;52.272;9.746;2022-09-13T07:38:56;2.03;;;2.03;;
16516;SDS011;8371;52.272;9.746;2022-09-13T07:41:23;1.80;;;1.80;;
16516;SDS011;8371;52.272;9.746;2022-09-13T07:43:51;2.10;;;2.10;;
16516;SDS011;8371;52.272;9.746;2022-09-13T07:46:24;2.30;;;2.20;;
16516;SDS011;8371;52.272;9.746;2022-09-13T07:48:50;1.77;;;1.77;;
16516;SDS011;8371;52.272;9.746;2022-09-13T07:51:19;2.00;;;1.93;;
16516;SDS011;8371;52.272;9.746;2022-09-13T07:53:46;1.70;;;1.70;;
16516;SDS011;8371;52.272;9.746;2022-09-13T07:56:14;1.80;;;1.80;;
16516;SDS011;8371;52.272;9.746;2022-09-13T07:58:42;1.90;;;1.90;;
16516;SDS011;8371;52.272;9.746;2022-09-13T08:01:12;1.90;;;1.90;;
16516;SDS011;8371;52.272;9.746;2022-09-13T08:03:41;3.60;;;2.10;;
16516;SDS011;8371;52.272;9.746;2022-09-13T08:06:07;1.97;;;1.90;;
16516;SDS011;8371;52.272;9.746;2022-09-13T08:08:34;1.60;;;1.60;;
16516;SDS011;8371;52.272;9.746;2022-09-13T08:11:01;1.90;;;1.90;;
16516;SDS011;8371;52.272;9.746;2022-09-13T08:13:29;2.10;;;2.10;;
16516;SDS011;8371;52.272;9.746;2022-09-13T08:16:04;1.93;;;1.93;;
16516;SDS011;8371;52.272;9.746;2022-09-13T08:18:30;1.80;;;1.80;;
16516;SDS011;8371;52.272;9.746;2022-09-13T08:20:57;2.50;;;2.40;;
16516;SDS011;8371;52.272;9.746;2022-09-13T08:23:24;1.90;;;1.90;;
16516;SDS011;8371;52.272;9.746;2022-09-13T08:25:50;2.00;;;2.00;;
16516;SDS011;8371;52.272;9.746;2022-09-13T08:28:16;2.30;;;2.30;;
16516;SDS011;8371;52.272;9.746;2022-09-13T08:30:45;2.43;;;2.33;;
16516;SDS011;8371;52.272;9.746;2022-09-13T08:33:12;2.53;;;2.43;;
16516;SDS011;8371;52.272;9.746;2022-09-13T08:35:38;2.47;;;2.37;;
16516;SDS011;8371;52.272;9.746;2022-09-13T08:38:05;2.30;;;2.20;;
16516;SDS011;8371;52.272;9.746;2022-09-13T08:40:33;2.50;;;2.40;;
16516;SDS011;8371;52.272;9.746;2022-09-13T08:43:03;2.53;;;2.43;;
16516;SDS011;8371;52.272;9.746;2022-09-13T08:45:33;3.50;;;2.63;;
16516;SDS011;8371;52.272;9.746;2022-09-13T08:48:06;2.50;;;2.50;;
16516;SDS011;8371;52.272;9.746;2022-09-13T08:50:38;2.77;;;2.67;;
16516;SDS011;8371;52.272;9.746;2022-09-13T08:53:10;2.50;;;2.40;;
16516;SDS011;8371;52.272;9.746;2022-09-13T08:56:08;2.73;;;2.63;;
16516;SDS011;8371;52.272;9.746;2022-09-13T09:06:42;3.13;;;2.93;;
16516;SDS011;8371;52.272;9.746;2022-09-13T09:09:18;2.87;;;2.77;;
16516;SDS011;8371;52.272;9.746;2022-09-13T09:11:45;3.10;;;3.00;;
16516;SDS011;8371;52.272;9.746;2022-09-13T09:14:18;2.97;;;2.87;;
16516;SDS011;8371;52.272;9.746;2022-09-13T09:16:59;2.70;;;2.40;;
16516;SDS011;8371;52.272;9.746;2022-09-13T09:21:59;2.40;;;2.40;;
16516;SDS011;8371;52.272;9.746;2022-09-13T09:24:28;2.50;;;2.40;;
16516;SDS011;8371;52.272;9.746;2022-09-13T09:26:57;2.70;;;2.60;;
16516;SDS011;8371;52.272;9.746;2022-09-13T09:29:26;2.80;;;2.70;;
16516;SDS011;8371;52.272;9.746;2022-09-13T09:32:16;2.27;;;2.07;;
16516;SDS011;8371;52.272;9.746;2022-09-13T09:34:49;2.20;;;2.10;;
16516;SDS011;8371;52.272;9.746;2022-09-13T09:37:23;2.77;;;2.67;;
16516;SDS011;8371;52.272;9.746;2022-09-13T09:40:00;2.90;;;2.80;;
16516;SDS011;8371;52.272;9.746;2022-09-13T09:42:31;2.40;;;2.30;;
16516;SDS011;8371;52.272;9.746;2022-09-13T09:45:03;2.60;;;2.50;;
16516;SDS011;8371;52.272;9.746;2022-09-13T09:47:41;2.87;;;2.67;;
16516;SDS011;8371;52.272;9.746;2022-09-13T09:50:12;3.23;;;2.90;;
16516;SDS011;8371;52.272;9.746;2022-09-13T09:55:29;2.57;;;2.47;;
16516;SDS011;8371;52.272;9.746;2022-09-13T09:58:10;2.93;;;2.83;;
16516;SDS011;8371;52.272;9.746;2022-09-13T10:00:49;2.73;;;2.63;;
16516;SDS011;8371;52.272;9.746;2022-09-13T10:03:17;2.97;;;2.87;;
16516;SDS011;8371;52.272;9.746;2022-09-13T10:06:02;2.50;;;2.40;;
16516;SDS011;8371;52.272;9.746;2022-09-13T10:08:29;2.50;;;2.40;;
16516;SDS011;8371;52.272;9.746;2022-09-13T10:10:57;3.30;;;3.20;;
16516;SDS011;8371;52.272;9.746;2022-09-13T10:13:24;3.60;;;3.40;;
16516;SDS011;8371;52.272;9.746;2022-09-13T10:15:51;3.33;;;3.23;;
16516;SDS011;8371;52.272;9.746;2022-09-13T10:18:28;3.20;;;3.10;;
16516;SDS011;8371;52.272;9.746;2022-09-13T10:20:59;2.73;;;2.63;;
16516;SDS011;8371;52.272;9.746;2022-09-13T10:23:34;2.80;;;2.70;;
16516;SDS011;8371;52.272;9.746;2022-09-13T10:26:05;2.77;;;2.70;;
16516;SDS011;8371;52.272;9.746;2022-09-13T10:28:40;2.60;;;2.60;;
16516;SDS011;8371;52.272;9.746;2022-09-13T10:31:09;2.83;;;2.73;;
16516;SDS011;8371;52.272;9.746;2022-09-13T10:33:42;2.70;;;2.60;;
16516;SDS011;8371;52.272;9.746;2022-09-13T10:36:11;2.67;;;2.47;;
16516;SDS011;8371;52.272;9.746;2022-09-13T10:38:40;2.77;;;2.67;;
16516;SDS011;8371;52.272;9.746;2022-09-13T10:41:09;2.57;;;2.47;;
16516;SDS011;8371;52.272;9.746;2022-09-13T10:43:37;2.50;;;2.40;;
16516;SDS011;8371;52.272;9.746;2022-09-13T10:46:04;2.30;;;2.20;;
16516;SDS011;8371;52.272;9.746;2022-09-13T10:48:42;2.67;;;2.57;;
16516;SDS011;8371;52.272;9.746;2022-09-13T10:51:19;2.17;;;2.17;;
16516;SDS011;8371;52.272;9.746;2022-09-13T10:53:46;2.57;;;2.47;;
16516;SDS011;8371;52.272;9.746;2022-09-13T10:56:19;3.00;;;2.90;;
16516;SDS011;8371;52.272;9.746;2022-09-13T10:58:58;2.90;;;2.80;;
16516;SDS011;8371;52.272;9.746;2022-09-13T11:01:40;2.90;;;2.80;;
16516;SDS011;8371;52.272;9.746;2022-09-13T11:04:18;3.10;;;3.00;;
16516;SDS011;8371;52.272;9.746;2022-09-13T11:07:01;3.53;;;2.93;;
16516;SDS011;8371;52.272;9.746;2022-09-13T11:09:51;3.27;;;3.17;;
16516;SDS011;8371;52.272;9.746;2022-09-13T11:12:25;3.77;;;3.57;;
16516;SDS011;8371;52.272;9.746;2022-09-13T11:32:05;3.23;;;3.10;;
16516;SDS011;8371;52.272;9.746;2022-09-13T11:34:50;3.73;;;3.63;;
16516;SDS011;8371;52.272;9.746;2022-09-13T11:43:07;3.33;;;3.23;;
16516;SDS011;8371;52.272;9.746;2022-09-13T11:45:34;3.43;;;3.33;;
16516;SDS011;8371;52.272;9.746;2022-09-13T11:48:18;3.63;;;3.43;;
16516;SDS011;8371;52.272;9.746;2022-09-13T11:50:55;3.67;;;3.57;;
16516;SDS011;8371;52.272;9.746;2022-09-13T11:53:30;3.80;;;3.70;;
16516;SDS011;8371;52.272;9.746;2022-09-13T11:56:14;4.07;;;3.87;;
16516;SDS011;8371;52.272;9.746;2022-09-13T11:58:32;3.77;;;3.67;;
16516;SDS011;8371;52.272;9.746;2022-09-13T12:01:00;3.40;;;3.30;;
16516;SDS011;8371;52.272;9.746;2022-09-13T12:06:06;3.47;;;3.37;;
16516;SDS011;8371;52.272;9.746;2022-09-13T12:08:40;3.27;;;3.17;;
16516;SDS011;8371;52.272;9.746;2022-09-13T12:11:10;4.03;;;3.83;;
16516;SDS011;8371;52.272;9.746;2022-09-13T12:13:43;4.03;;;3.83;;
16516;SDS011;8371;52.272;9.746;2022-09-13T12:16:22;3.83;;;3.73;;
16516;SDS011;8371;52.272;9.746;2022-09-13T12:18:50;4.03;;;3.93;;
16516;SDS011;8371;52.272;9.746;2022-09-13T12:21:22;3.50;;;3.40;;
16516;SDS011;8371;52.272;9.746;2022-09-13T12:29:17;3.53;;;3.43;;
16516;SDS011;8371;52.272;9.746;2022-09-13T12:31:44;3.83;;;3.73;;
16516;SDS011;8371;52.272;9.746;2022-09-13T12:34:56;3.63;;;3.53;;
16516;SDS011;8371;52.272;9.746;2022-09-13T12:39:27;3.53;;;3.37;;
16516;SDS011;8371;52.272;9.746;2022-09-13T12:47:46;3.60;;;3.50;;
16516;SDS011;8371;52.272;9.746;2022-09-13T12:56:27;3.43;;;3.33;;
16516;SDS011;8371;52.272;9.746;2022-09-13T13:01:51;3.30;;;3.20;;
16516;SDS011;8371;52.272;9.746;2022-09-13T13:04:22;3.63;;;3.33;;
16516;SDS011;8371;52.272;9.746;2022-09-13T13:06:51;3.57;;;3.47;;
16516;SDS011;8371;52.272;9.746;2022-09-13T13:09:21;3.30;;;3.13;;
16516;SDS011;8371;52.272;9.746;2022-09-13T13:11:49;2.83;;;2.73;;
16516;SDS011;8371;52.272;9.746;2022-09-13T13:23:17;1.97;;;1.97;;
16516;SDS011;8371;52.272;9.746;2022-09-13T13:25:53;2.10;;;2.10;;
16516;SDS011;8371;52.272;9.746;2022-09-13T13:33:58;1.67;;;1.67;;
16516;SDS011;8371;52.272;9.746;2022-09-13T13:49:43;1.40;;;1.40;;
16516;SDS011;8371;52.272;9.746;2022-09-13T13:57:33;1.10;;;1.10;;
16516;SDS011;8371;52.272;9.746;2022-09-13T14:00:19;0.97;;;0.97;;
16516;SDS011;8371;52.272;9.746;2022-09-13T14:02:52;1.17;;;1.17;;
16516;SDS011;8371;52.272;9.746;2022-09-13T14:05:30;1.10;;;1.10;;
16516;SDS011;8371;52.272;9.746;2022-09-13T14:16:32;1.20;;;1.20;;
16516;SDS011;8371;52.272;9.746;2022-09-13T14:19:20;1.10;;;1.10;;
16516;SDS011;8371;52.272;9.746;2022-09-13T14:22:03;1.90;;;1.00;;
16516;SDS011;8371;52.272;9.746;2022-09-13T14:24:35;1.03;;;1.03;;
16516;SDS011;8371;52.272;9.746;2022-09-13T14:27:02;0.90;;;0.90;;
16516;SDS011;8371;52.272;9.746;2022-09-13T14:29:28;0.83;;;0.83;;
16516;SDS011;8371;52.272;9.746;2022-09-13T14:32:04;1.23;;;0.90;;
16516;SDS011;8371;52.272;9.746;2022-09-13T14:34:34;0.80;;;0.80;;
16516;SDS011;8371;52.272;9.746;2022-09-13T14:37:04;0.80;;;0.80;;
16516;SDS011;8371;52.272;9.746;2022-09-13T14:39:31;0.90;;;0.90;;
16516;SDS011;8371;52.272;9.746;2022-09-13T14:42:01;0.83;;;0.83;;
16516;SDS011;8371;52.272;9.746;2022-09-13T14:44:42;0.67;;;0.67;;
16516;SDS011;8371;52.272;9.746;2022-09-13T14:49:58;0.97;;;0.90;;
16516;SDS011;8371;52.272;9.746;2022-09-13T14:52:30;0.50;;;0.50;;
16516;SDS011;8371;52.272;9.746;2022-09-13T14:55:00;1.40;;;0.50;;
16516;SDS011;8371;52.272;9.746;2022-09-13T14:57:32;0.60;;;0.60;;
16516;SDS011;8371;52.272;9.746;2022-09-13T15:00:38;0.30;;;0.30;;
16516;SDS011;8371;52.272;9.746;2022-09-13T15:02:53;0.50;;;0.50;;
16516;SDS011;8371;52.272;9.746;2022-09-13T15:05:22;0.60;;;0.60;;
16516;SDS011;8371;52.272;9.746;2022-09-13T15:07:50;0.70;;;0.70;;
16516;SDS011;8371;52.272;9.746;2022-09-13T15:15:34;1.23;;;0.60;;
16516;SDS011;8371;52.272;9.746;2022-09-13T15:18:05;0.60;;;0.60;;
16516;SDS011;8371;52.272;9.746;2022-09-13T15:20:50;0.40;;;0.40;;
16516;SDS011;8371;52.272;9.746;2022-09-13T15:23:30;0.30;;;0.30;;
16516;SDS011;8371;52.272;9.746;2022-09-13T15:26:07;0.70;;;0.70;;
16516;SDS011;8371;52.272;9.746;2022-09-13T15:31:22;0.60;;;0.60;;
16516;SDS011;8371;52.272;9.746;2022-09-13T15:36:38;0.30;;;0.30;;
16516;SDS011;8371;52.272;9.746;2022-09-13T15:41:50;0.30;;;0.30;;
16516;SDS011;8371;52.272;9.746;2022-09-13T15:44:23;0.40;;;0.40;;
16516;SDS011;8371;52.272;9.746;2022-09-13T15:46:53;0.40;;;0.33;;
16516;SDS011;8371;52.272;9.746;2022-09-13T15:49:22;0.40;;;0.40;;
16516;SDS011;8371;52.272;9.746;2022-09-13T15:51:54;0.30;;;0.30;;
16516;SDS011;8371;52.272;9.746;2022-09-13T15:54:22;0.40;;;0.40;;
16516;SDS011;8371;52.272;9.746;2022-09-13T15:56:51;0.43;;;0.43;;
16516;SDS011;8371;52.272;9.746;2022-09-13T15:59:21;0.50;;;0.50;;
16516;SDS011;8371;52.272;9.746;2022-09-13T16:01:49;0.40;;;0.40;;
16516;SDS011;8371;52.272;9.746;2022-09-13T16:04:16;0.37;;;0.37;;
16516;SDS011;8371;52.272;9.746;2022-09-13T16:06:42;0.60;;;0.60;;
16516;SDS011;8371;52.272;9.746;2022-09-13T16:09:16;0.50;;;0.50;;
16516;SDS011;8371;52.272;9.746;2022-09-13T16:11:44;0.37;;;0.37;;
16516;SDS011;8371;52.272;9.746;2022-09-13T16:14:11;0.57;;;0.57;;
16516;SDS011;8371;52.272;9.746;2022-09-13T16:16:37;0.40;;;0.40;;
16516;SDS011;8371;52.272;9.746;2022-09-13T16:19:02;2.00;;;0.80;;
16516;SDS011;8371;52.272;9.746;2022-09-13T16:21:28;1.00;;;0.80;;
16516;SDS011;8371;52.272;9.746;2022-09-13T16:23:54;0.40;;;0.40;;
16516;SDS011;8371;52.272;9.746;2022-09-13T16:26:20;0.50;;;0.50;;
16516;SDS011;8371;52.272;9.746;2022-09-13T16:28:46;0.30;;;0.30;;
16516;SDS011;8371;52.272;9.746;2022-09-13T16:31:12;0.40;;;0.40;;
16516;SDS011;8371;52.272;9.746;2022-09-13T16:33:40;0.40;;;0.37;;
16516;SDS011;8371;52.272;9.746;2022-09-13T16:36:07;0.40;;;0.40;;
16516;SDS011;8371;52.272;9.746;2022-09-13T16:38:35;0.40;;;0.40;;
16516;SDS011;8371;52.272;9.746;2022-09-13T16:41:03;0.30;;;0.30;;
16516;SDS011;8371;52.272;9.746;2022-09-13T16:43:29;0.50;;;0.40;;
16516;SDS011;8371;52.272;9.746;2022-09-13T16:45:57;0.20;;;0.20;;
16516;SDS011;8371;52.272;9.746;2022-09-13T16:48:24;0.50;;;0.50;;
16516;SDS011;8371;52.272;9.746;2022-09-13T16:50:50;0.50;;;0.50;;
16516;SDS011;8371;52.272;9.746;2022-09-13T16:53:16;0.40;;;0.40;;
16516;SDS011;8371;52.272;9.746;2022-09-13T16:55:42;0.70;;;0.40;;
16516;SDS011;8371;52.272;9.746;2022-09-13T16:58:10;0.30;;;0.30;;
16516;SDS011;8371;52.272;9.746;2022-09-13T17:00:36;0.60;;;0.60;;
16516;SDS011;8371;52.272;9.746;2022-09-13T17:03:01;0.50;;;0.40;;
16516;SDS011;8371;52.272;9.746;2022-09-13T17:05:27;0.50;;;0.50;;
16516;SDS011;8371;52.272;9.746;2022-09-13T17:07:53;0.90;;;0.53;;
16516;SDS011;8371;52.272;9.746;2022-09-13T17:10:19;0.30;;;0.30;;
16516;SDS011;8371;52.272;9.746;2022-09-13T17:12:44;0.40;;;0.37;;
16516;SDS011;8371;52.272;9.746;2022-09-13T17:15:10;0.30;;;0.30;;
16516;SDS011;8371;52.272;9.746;2022-09-13T17:17:36;0.40;;;0.40;;
16516;SDS011;8371;52.272;9.746;2022-09-13T17:20:03;0.30;;;0.30;;
16516;SDS011;8371;52.272;9.746;2022-09-13T17:22:32;0.30;;;0.30;;
16516;SDS011;8371;52.272;9.746;2022-09-13T17:24:58;0.30;;;0.30;;
16516;SDS011;8371;52.272;9.746;2022-09-13T17:27:25;0.20;;;0.20;;
16516;SDS011;8371;52.272;9.746;2022-09-13T17:29:51;0.70;;;0.70;;
16516;SDS011;8371;52.272;9.746;2022-09-13T17:32:18;0.40;;;0.40;;
16516;SDS011;8371;52.272;9.746;2022-09-13T17:34:44;0.40;;;0.40;;
16516;SDS011;8371;52.272;9.746;2022-09-13T17:37:09;0.40;;;0.40;;
16516;SDS011;8371;52.272;9.746;2022-09-13T17:39:35;0.40;;;0.40;;
16516;SDS011;8371;52.272;9.746;2022-09-13T17:42:01;0.53;;;0.50;;
16516;SDS011;8371;52.272;9.746;2022-09-13T17:44:26;0.20;;;0.20;;
16516;SDS011;8371;52.272;9.746;2022-09-13T17:46:52;0.50;;;0.50;;
16516;SDS011;8371;52.272;9.746;2022-09-13T17:49:18;0.30;;;0.30;;
16516;SDS011;8371;52.272;9.746;2022-09-13T17:51:44;0.33;;;0.33;;